Salt Lake City, Utah
Traffic Map
Current Weather Conditions
Salt Lake City, Utah
Overcast
Overcast
-3°
Feels Like: -7°
Wind Chill: -7° Ceiling: 6000
Heat Index: -3° Visibility: 10mi
Dew Point: -5° Wind: 7mph
Humidity: 85% Direction: 330° (NNW)
Pressure: 30.14in Gusts: 0mph
Raw Report DataKSLC 090154Z 33006KT 10SM BKN060 BKN070 OVC090 M03/M05 A3014 RMK AO2 SLP234 T10281050
Traffic Incident Summary
Active as of:
Severity:
Category:
InformationThere was an issue retrieving the traffic information for this location. Please try a different location or try again shortly.
Advertisements
Track Severe Weather on mobile